Terminal Aerodrome Forecast
Issued by NWS

Home | Current Version | Previous Version | Text Only | Print | Product List | Glossary On
Versions: 1 2 3 4 5 6 7 8 9 10 11 12 13 14 15 16 17 18 19 20 21 22 23 24 25 26 27 28 29 30 31 32 33 34 35 36 37 38 39 40 41 42 43 44 45 46 47 48 49 50
000
FTUS44 KHGX 280523
TAFIAH
TAF
KIAH 280523Z 2806/2912 18009KT P6SM BKN017 BKN250
     FM281500 18009KT P6SM BKN025
     FM281900 16012KT P6SM SCT045
     FM290300 15005KT P6SM VCSH BKN015 BKN050=

USA.gov is the U.S. government's official web portal to all federal, state and local government web resources and services.